createdAt,value
2022-09-27T00:02:07.674Z,8.79
2022-09-27T00:04:36.866Z,8.67
2022-09-27T00:07:05.676Z,8.53
2022-09-27T00:09:34.676Z,8.62
2022-09-27T00:12:10.805Z,8.67
2022-09-27T00:14:38.734Z,8.79
2022-09-27T00:17:10.616Z,8.78
2022-09-27T00:19:37.482Z,8.62
2022-09-27T00:22:04.331Z,8.60
2022-09-27T00:24:31.920Z,8.57
2022-09-27T00:26:58.694Z,8.44
2022-09-27T00:29:26.017Z,8.42
2022-09-27T00:31:52.894Z,8.36
2022-09-27T00:34:24.887Z,8.24
2022-09-27T00:36:52.642Z,8.58
2022-09-27T00:39:33.668Z,8.55
2022-09-27T00:42:04.657Z,8.53
2022-09-27T00:44:38.793Z,8.55
2022-09-27T00:47:35.178Z,8.44
2022-09-27T00:50:23.990Z,8.36
2022-09-27T00:53:19.822Z,8.27
2022-09-27T00:55:52.067Z,8.23
2022-09-27T00:58:27.671Z,8.17
2022-09-27T01:01:03.001Z,8.17
2022-09-27T01:03:34.717Z,8.12
2022-09-27T01:06:01.830Z,8.26
2022-09-27T01:08:28.646Z,8.25
2022-09-27T01:11:08.346Z,8.23
2022-09-27T01:13:38.778Z,8.12
2022-09-27T01:16:23.394Z,8.21
2022-09-27T01:18:51.123Z,8.33
2022-09-27T01:21:24.190Z,8.29
2022-09-27T01:23:58.267Z,8.29
2022-09-27T01:26:45.730Z,8.26
2022-09-27T01:29:20.753Z,8.24
2022-09-27T01:32:09.266Z,8.40
2022-09-27T01:34:36.137Z,8.35
2022-09-27T01:37:19.909Z,8.32
2022-09-27T01:40:06.316Z,8.17
2022-09-27T01:42:40.972Z,8.08
2022-09-27T01:45:08.975Z,8.19
2022-09-27T01:47:40.123Z,8.27
2022-09-27T01:50:16.150Z,8.22
2022-09-27T01:52:53.474Z,8.16
2022-09-27T01:55:24.701Z,8.31
2022-09-27T01:57:56.089Z,8.35
2022-09-27T02:00:23.047Z,8.38
2022-09-27T02:02:56.186Z,8.29
2022-09-27T02:05:29.456Z,8.29
2022-09-27T02:08:02.885Z,8.29
2022-09-27T02:10:34.598Z,8.26
2022-09-27T02:13:25.118Z,8.23
2022-09-27T02:15:54.865Z,8.04
2022-09-27T02:18:27.853Z,8.16
2022-09-27T02:20:57.240Z,8.12
2022-09-27T02:23:42.000Z,8.17
2022-09-27T02:26:22.734Z,8.09
2022-09-27T02:28:58.826Z,8.13
2022-09-27T02:31:26.248Z,8.08
2022-09-27T02:34:01.166Z,8.16
2022-09-27T02:36:29.557Z,8.11
2022-09-27T02:39:00.454Z,8.07
2022-09-27T02:41:27.263Z,7.99
2022-09-27T02:44:20.163Z,8.04
2022-09-27T02:46:52.809Z,7.92
2022-09-27T02:49:26.984Z,8.04
2022-09-27T02:52:08.523Z,8.01
2022-09-27T02:55:13.205Z,8.00
2022-09-27T02:58:05.325Z,7.98
2022-09-27T03:00:45.216Z,8.00
2022-09-27T03:03:12.184Z,7.94
2022-09-27T03:05:45.232Z,8.00
2022-09-27T03:08:38.144Z,7.94
2022-09-27T03:11:05.552Z,7.96
2022-09-27T03:13:55.851Z,8.02
2022-09-27T03:16:45.620Z,7.98
2022-09-27T03:19:20.798Z,8.03
2022-09-27T03:21:54.764Z,8.06
2022-09-27T03:24:26.622Z,8.06
2022-09-27T03:27:00.875Z,8.12
2022-09-27T03:29:29.247Z,8.11
2022-09-27T03:32:02.835Z,8.22
2022-09-27T03:34:39.540Z,8.23
2022-09-27T03:37:12.533Z,8.27
2022-09-27T03:39:45.560Z,8.31
2022-09-27T03:42:12.574Z,8.27
2022-09-27T03:44:40.876Z,8.28
2022-09-27T03:47:15.833Z,8.26
2022-09-27T03:49:45.839Z,8.12
2022-09-27T03:52:19.848Z,8.22
2022-09-27T03:54:46.747Z,8.23
2022-09-27T03:57:15.794Z,8.20
2022-09-27T03:59:43.721Z,8.24
2022-09-27T04:02:11.573Z,8.21
2022-09-27T04:04:38.572Z,8.25
2022-09-27T04:07:10.404Z,8.16
2022-09-27T04:09:44.399Z,8.20
2022-09-27T04:12:23.008Z,8.27
2022-09-27T04:14:49.937Z,8.14
2022-09-27T04:17:16.865Z,8.25
2022-09-27T04:19:43.684Z,8.21
2022-09-27T04:22:44.350Z,8.26
2022-09-27T04:25:19.354Z,8.30
2022-09-27T04:27:55.505Z,8.33
2022-09-27T04:30:31.490Z,8.22
2022-09-27T04:32:58.754Z,8.21
2022-09-27T04:35:52.605Z,8.26
2022-09-27T04:38:25.425Z,8.21
2022-09-27T04:40:52.327Z,8.21
2022-09-27T04:43:21.334Z,8.19
2022-09-27T04:45:48.257Z,8.27
2022-09-27T04:48:15.319Z,8.23
2022-09-27T04:50:55.682Z,8.27
2022-09-27T04:53:33.510Z,8.31
2022-09-27T04:56:06.316Z,8.34
2022-09-27T04:58:34.496Z,8.36
2022-09-27T05:01:04.018Z,8.49
2022-09-27T05:03:32.078Z,8.48
2022-09-27T05:05:59.508Z,8.52
2022-09-27T05:08:26.808Z,8.59
2022-09-27T05:10:54.497Z,8.58
2022-09-27T05:13:28.153Z,8.68
2022-09-27T05:15:56.027Z,8.66
2022-09-27T05:18:30.402Z,8.68
2022-09-27T05:20:59.318Z,8.92
2022-09-27T05:23:38.239Z,8.92
2022-09-27T05:26:06.005Z,8.98
2022-09-27T05:28:35.495Z,9.06
2022-09-27T05:31:03.506Z,9.19
2022-09-27T05:33:30.533Z,9.20
2022-09-27T05:36:04.854Z,9.22
2022-09-27T05:38:37.913Z,9.32
2022-09-27T05:41:07.662Z,9.26
2022-09-27T05:43:37.709Z,9.35
2022-09-27T05:46:05.826Z,9.31
2022-09-27T05:48:32.763Z,9.26
2022-09-27T05:50:59.635Z,9.20
2022-09-27T05:53:26.445Z,9.21
2022-09-27T05:55:53.405Z,9.21
2022-09-27T05:58:20.242Z,9.13
2022-09-27T06:00:48.349Z,9.19
2022-09-27T06:03:15.243Z,9.15
2022-09-27T06:05:45.163Z,9.15
2022-09-27T06:08:14.227Z,9.15
2022-09-27T06:10:43.048Z,9.19
2022-09-27T06:13:16.829Z,9.28
2022-09-27T06:16:07.223Z,9.30
2022-09-27T06:18:35.237Z,9.41
2022-09-27T06:21:02.688Z,9.38
2022-09-27T06:23:36.468Z,9.44
2022-09-27T06:26:11.155Z,9.49
2022-09-27T06:28:38.023Z,9.59
2022-09-27T06:31:12.077Z,9.65
2022-09-27T06:33:41.018Z,9.67
2022-09-27T06:36:08.397Z,9.81
2022-09-27T06:38:36.577Z,9.89
2022-09-27T06:41:06.806Z,9.96
2022-09-27T06:43:35.910Z,10.03
2022-09-27T06:46:07.072Z,10.13
2022-09-27T06:48:42.876Z,10.25
2022-09-27T06:51:14.736Z,10.30
2022-09-27T06:53:46.156Z,10.33
2022-09-27T06:56:12.974Z,10.36
2022-09-27T06:58:58.174Z,10.47
2022-09-27T07:01:53.399Z,10.43
2022-09-27T07:04:20.605Z,10.32
2022-09-27T07:06:47.598Z,10.41
2022-09-27T07:09:20.426Z,10.48
2022-09-27T07:11:48.664Z,10.51
2022-09-27T07:14:20.960Z,10.62
2022-09-27T07:16:47.833Z,10.62
2022-09-27T07:19:16.246Z,10.58
2022-09-27T07:21:43.338Z,10.69
2022-09-27T07:24:17.154Z,10.73
2022-09-27T07:26:43.993Z,10.81
2022-09-27T07:29:11.820Z,10.86
2022-09-27T07:31:39.674Z,10.95
2022-09-27T07:34:06.549Z,10.92
2022-09-27T07:36:33.768Z,10.97
2022-09-27T07:39:00.646Z,10.98
2022-09-27T07:41:29.918Z,11.19
2022-09-27T07:44:02.547Z,11.25
2022-09-27T07:46:30.577Z,11.31
2022-09-27T07:48:57.604Z,11.27
2022-09-27T07:51:24.496Z,11.33
2022-09-27T07:53:52.600Z,11.42
2022-09-27T07:56:21.505Z,11.44
2022-09-27T07:58:50.368Z,11.61
2022-09-27T08:01:20.747Z,11.64
2022-09-27T08:03:47.613Z,11.79
2022-09-27T08:06:14.716Z,11.77
2022-09-27T08:08:44.870Z,11.86
2022-09-27T08:11:16.142Z,11.88
2022-09-27T08:13:43.672Z,11.94
2022-09-27T08:16:19.824Z,12.03
2022-09-27T08:18:47.701Z,11.99
2022-09-27T08:21:20.283Z,12.07
2022-09-27T08:23:48.176Z,12.17
2022-09-27T08:26:16.174Z,12.27
2022-09-27T08:28:44.051Z,12.40
2022-09-27T08:31:10.936Z,12.59
2022-09-27T08:33:41.473Z,12.78
2022-09-27T08:36:12.821Z,12.69
2022-09-27T08:38:39.678Z,12.51
2022-09-27T08:41:12.927Z,12.51
2022-09-27T08:43:48.608Z,12.58
2022-09-27T08:46:20.009Z,12.52
2022-09-27T08:49:09.085Z,12.67
2022-09-27T08:51:36.967Z,12.74
2022-09-27T08:54:12.507Z,12.85
2022-09-27T08:56:39.527Z,12.92
2022-09-27T08:59:21.340Z,13.09
2022-09-27T09:01:53.284Z,13.08
2022-09-27T09:04:49.760Z,13.09
2022-09-27T09:07:34.912Z,13.13
2022-09-27T09:10:13.991Z,12.97
2022-09-27T09:12:53.515Z,13.07
2022-09-27T09:15:30.157Z,12.99
2022-09-27T09:18:22.454Z,13.03
2022-09-27T09:21:07.356Z,13.13
2022-09-27T09:24:05.278Z,13.08
2022-09-27T09:26:35.945Z,13.19
2022-09-27T09:29:21.389Z,13.27
2022-09-27T09:32:07.731Z,13.16
2022-09-27T09:34:40.306Z,13.09
2022-09-27T09:37:11.034Z,13.07
2022-09-27T09:39:45.893Z,13.07
2022-09-27T09:42:14.683Z,13.01
2022-09-27T09:44:49.930Z,13.02
2022-09-27T09:47:27.908Z,13.07
2022-09-27T09:49:58.516Z,13.05
2022-09-27T09:52:35.078Z,13.13
2022-09-27T09:55:07.977Z,13.05
2022-09-27T09:57:55.989Z,13.03
2022-09-27T10:00:22.937Z,13.21
2022-09-27T10:02:51.663Z,13.18
2022-09-27T10:05:20.423Z,13.29
2022-09-27T10:07:50.928Z,13.41
2022-09-27T10:10:25.104Z,13.36
2022-09-27T10:12:52.594Z,13.35
2022-09-27T10:15:23.005Z,13.45
2022-09-27T10:17:51.723Z,13.49
2022-09-27T10:20:33.583Z,13.55
2022-09-27T10:23:05.478Z,13.59
2022-09-27T10:25:46.954Z,13.60
2022-09-27T10:28:40.258Z,13.59
2022-09-27T10:31:23.269Z,13.52
2022-09-27T10:33:59.836Z,13.51
2022-09-27T10:36:52.111Z,13.41
2022-09-27T10:39:24.021Z,13.26
2022-09-27T10:41:51.997Z,13.30
2022-09-27T10:44:29.269Z,13.27
2022-09-27T10:47:00.327Z,13.36
2022-09-27T10:49:29.938Z,13.31
2022-09-27T10:52:02.063Z,13.35
2022-09-27T10:54:49.570Z,13.28
2022-09-27T10:57:29.406Z,13.29
2022-09-27T10:59:59.796Z,13.21
2022-09-27T11:02:37.345Z,13.23
2022-09-27T11:05:15.205Z,13.18
2022-09-27T11:07:50.750Z,13.13
2022-09-27T11:10:30.496Z,13.04
2022-09-27T11:13:19.632Z,12.94
2022-09-27T11:15:52.596Z,12.86
2022-09-27T11:18:42.359Z,12.87
2022-09-27T11:21:18.249Z,12.87
2022-09-27T11:23:45.081Z,12.91
2022-09-27T11:26:43.065Z,13.02
2022-09-27T11:29:30.440Z,13.00
2022-09-27T11:32:14.694Z,13.05
2022-09-27T11:34:43.726Z,13.08
2022-09-27T11:37:13.774Z,12.92
2022-09-27T11:39:51.358Z,12.83
2022-09-27T11:42:33.937Z,12.87
2022-09-27T11:48:01.444Z,12.45
2022-09-27T11:50:34.595Z,12.43
2022-09-27T11:53:11.737Z,12.25
2022-09-27T11:55:59.650Z,12.26
2022-09-27T11:58:32.782Z,12.41
2022-09-27T12:01:24.317Z,12.34
2022-09-27T12:04:24.109Z,12.27
2022-09-27T12:06:57.863Z,12.14
2022-09-27T12:09:28.978Z,12.12
2022-09-27T12:12:09.172Z,12.29
2022-09-27T12:14:41.135Z,12.40
2022-09-27T12:17:14.834Z,12.43
2022-09-27T12:19:45.824Z,12.58
2022-09-27T12:22:16.049Z,12.70
2022-09-27T12:24:44.253Z,12.63
2022-09-27T12:30:35.108Z,13.04
2022-09-27T12:33:13.460Z,12.86
2022-09-27T12:35:55.418Z,12.70
2022-09-27T12:38:38.272Z,12.68
2022-09-27T12:41:07.984Z,12.70
2022-09-27T12:43:49.578Z,12.53
2022-09-27T12:46:41.328Z,12.62
2022-09-27T12:49:36.152Z,12.63
2022-09-27T12:52:23.688Z,12.69
2022-09-27T12:54:56.309Z,12.39
2022-09-27T12:57:31.335Z,12.44
2022-09-27T13:00:12.644Z,12.57
2022-09-27T13:03:03.927Z,12.42
2022-09-27T13:05:44.294Z,12.38
2022-09-27T13:08:17.985Z,12.54
2022-09-27T13:11:02.939Z,12.64
2022-09-27T13:13:36.596Z,12.56
2022-09-27T13:16:05.444Z,12.72
2022-09-27T13:18:36.481Z,12.80
2022-09-27T13:21:28.950Z,13.00
2022-09-27T13:23:55.938Z,13.05
2022-09-27T13:26:42.784Z,13.09
2022-09-27T13:29:38.094Z,12.99
2022-09-27T13:32:21.323Z,12.98
2022-09-27T13:35:10.162Z,13.02
2022-09-27T13:37:45.987Z,12.97
2022-09-27T13:40:17.933Z,12.97
2022-09-27T13:43:03.689Z,13.01
2022-09-27T13:45:33.587Z,12.87
2022-09-27T13:48:02.723Z,12.85
2022-09-27T13:50:35.852Z,12.90
2022-09-27T13:53:06.450Z,12.75
2022-09-27T13:55:40.653Z,12.76
2022-09-27T13:58:56.536Z,12.66
2022-09-27T14:01:31.132Z,12.74
2022-09-27T14:04:25.344Z,12.68
2022-09-27T14:06:56.078Z,12.74
2022-09-27T14:09:31.157Z,12.75
2022-09-27T14:12:02.438Z,12.90
2022-09-27T14:14:33.399Z,13.01
2022-09-27T14:17:02.472Z,13.01
2022-09-27T14:19:33.962Z,13.10
2022-09-27T14:22:02.181Z,13.05
2022-09-27T14:24:43.885Z,13.09
2022-09-27T14:27:11.833Z,13.18
2022-09-27T14:29:45.278Z,13.23
2022-09-27T14:32:16.774Z,13.09
2022-09-27T14:34:44.867Z,13.12
2022-09-27T14:37:24.246Z,13.20
2022-09-27T14:39:55.613Z,13.19
2022-09-27T14:42:23.630Z,13.18
2022-09-27T14:44:51.773Z,13.12
2022-09-27T14:47:23.811Z,12.99
2022-09-27T14:49:53.920Z,13.12
2022-09-27T14:52:22.616Z,13.33
2022-09-27T14:55:06.761Z,13.38
2022-09-27T14:57:34.686Z,13.58
2022-09-27T15:00:09.932Z,13.68
2022-09-27T15:02:37.367Z,13.78
2022-09-27T15:05:04.568Z,13.88
2022-09-27T15:07:37.482Z,13.84
2022-09-27T15:10:18.897Z,13.81
2022-09-27T15:12:48.748Z,13.78
2022-09-27T15:15:19.898Z,13.67
2022-09-27T15:17:46.969Z,13.60
2022-09-27T15:20:22.386Z,13.39
2022-09-27T15:22:51.484Z,13.32
2022-09-27T15:25:39.557Z,13.10
2022-09-27T15:28:12.218Z,13.05
2022-09-27T15:30:50.254Z,13.10
2022-09-27T15:33:21.512Z,13.05
2022-09-27T15:35:55.192Z,12.93
2022-09-27T15:38:35.910Z,12.85
2022-09-27T15:41:04.704Z,12.75
2022-09-27T15:43:36.274Z,12.70
2022-09-27T15:46:05.968Z,12.70
2022-09-27T15:48:37.878Z,12.74
2022-09-27T15:51:26.552Z,12.62
2022-09-27T15:53:54.601Z,12.61
2022-09-27T15:56:21.543Z,12.61
2022-09-27T15:58:48.428Z,12.65
2022-09-27T16:01:17.515Z,12.63
2022-09-27T16:03:45.443Z,12.54
2022-09-27T16:06:14.327Z,12.57
2022-09-27T16:08:41.577Z,12.50
2022-09-27T16:11:17.461Z,12.58
2022-09-27T16:13:53.211Z,12.55
2022-09-27T16:16:25.372Z,12.53
2022-09-27T16:18:52.350Z,12.55
2022-09-27T16:21:20.240Z,12.53
2022-09-27T16:23:49.025Z,12.48
2022-09-27T16:26:20.019Z,12.40
2022-09-27T16:28:47.027Z,12.40
2022-09-27T16:31:17.446Z,12.36
2022-09-27T16:33:48.028Z,12.36
2022-09-27T16:36:19.385Z,12.32
2022-09-27T16:38:50.463Z,12.30
2022-09-27T16:41:18.218Z,12.34
2022-09-27T16:43:47.992Z,12.25
2022-09-27T16:46:18.880Z,12.25
2022-09-27T16:48:47.069Z,12.23
2022-09-27T16:51:34.605Z,12.23
2022-09-27T16:54:03.240Z,12.15
2022-09-27T16:56:32.359Z,12.21
2022-09-27T16:58:59.878Z,12.07
2022-09-27T17:01:29.027Z,12.20
2022-09-27T17:03:57.768Z,12.28
2022-09-27T17:06:24.791Z,12.05
2022-09-27T17:08:51.637Z,12.18
2022-09-27T17:11:19.961Z,12.19
2022-09-27T17:13:49.547Z,12.20
2022-09-27T17:16:16.821Z,12.11
2022-09-27T17:18:45.792Z,12.04
2022-09-27T17:21:12.928Z,11.99
2022-09-27T17:23:39.847Z,11.97
2022-09-27T17:26:09.591Z,11.98
2022-09-27T17:28:43.514Z,11.92
2022-09-27T17:31:15.777Z,11.84
2022-09-27T17:33:56.839Z,11.80
2022-09-27T17:36:27.021Z,11.80
2022-09-27T17:38:54.875Z,11.68
2022-09-27T17:41:24.471Z,11.81
2022-09-27T17:43:59.168Z,11.80
2022-09-27T17:46:31.181Z,11.81
2022-09-27T17:49:16.772Z,11.85
2022-09-27T17:51:51.350Z,11.81
2022-09-27T17:54:23.989Z,11.58
2022-09-27T17:56:52.486Z,11.57
2022-09-27T17:59:26.356Z,11.46
2022-09-27T18:01:55.678Z,11.48
2022-09-27T18:04:24.202Z,11.44
2022-09-27T18:06:51.282Z,11.46
2022-09-27T18:09:25.361Z,11.28
2022-09-27T18:11:53.576Z,11.24
2022-09-27T18:14:29.540Z,11.14
2022-09-27T18:16:57.874Z,11.28
2022-09-27T18:19:24.910Z,11.31
2022-09-27T18:21:58.001Z,11.33
2022-09-27T18:24:27.122Z,11.12
2022-09-27T18:26:56.129Z,10.99
2022-09-27T18:29:25.757Z,10.91
2022-09-27T18:31:52.636Z,10.80
2022-09-27T18:34:20.557Z,10.80
2022-09-27T18:36:49.484Z,10.78
2022-09-27T18:39:30.852Z,10.62
2022-09-27T18:41:58.952Z,10.68
2022-09-27T18:44:25.923Z,10.70
2022-09-27T18:47:03.189Z,10.63
2022-09-27T18:49:34.193Z,10.53
2022-09-27T18:52:02.352Z,10.40
2022-09-27T18:54:29.782Z,10.32
2022-09-27T18:57:35.278Z,10.30
2022-09-27T19:00:06.935Z,10.22
2022-09-27T19:02:38.433Z,10.30
2022-09-27T19:05:09.309Z,10.26
2022-09-27T19:07:37.481Z,10.41
2022-09-27T19:10:06.025Z,10.42
2022-09-27T19:13:03.378Z,10.54
2022-09-27T19:15:30.273Z,10.39
2022-09-27T19:17:57.944Z,10.33
2022-09-27T19:20:40.415Z,10.25
2022-09-27T19:23:07.588Z,10.23
2022-09-27T19:25:46.036Z,10.27
2022-09-27T19:28:16.555Z,10.16
2022-09-27T19:30:44.567Z,10.23
2022-09-27T19:33:14.851Z,10.18
2022-09-27T19:35:41.964Z,10.12
2022-09-27T19:38:09.001Z,10.21
2022-09-27T19:40:38.893Z,10.27
2022-09-27T19:43:05.907Z,10.04
2022-09-27T19:45:38.052Z,9.96
2022-09-27T19:48:06.673Z,10.07
2022-09-27T19:50:34.681Z,10.12
2022-09-27T19:53:05.011Z,9.95
2022-09-27T19:55:31.911Z,9.79
2022-09-27T19:57:59.294Z,9.52
2022-09-27T20:00:26.518Z,9.42
2022-09-27T20:02:53.670Z,9.58
2022-09-27T20:05:20.590Z,9.69
2022-09-27T20:07:48.134Z,9.58
2022-09-27T20:10:16.459Z,9.93
2022-09-27T20:12:49.427Z,10.06
2022-09-27T20:15:19.417Z,9.58
2022-09-27T20:17:49.790Z,9.43
2022-09-27T20:20:17.021Z,9.13
2022-09-27T20:22:43.935Z,9.05
2022-09-27T20:25:10.878Z,9.01
2022-09-27T20:27:37.787Z,8.93
2022-09-27T20:30:12.592Z,9.11
2022-09-27T20:32:39.486Z,9.44
2022-09-27T20:35:09.903Z,9.25
2022-09-27T20:37:38.417Z,9.32
2022-09-27T20:40:07.774Z,9.21
2022-09-27T20:42:35.635Z,9.19
2022-09-27T20:45:02.627Z,9.14
2022-09-27T20:47:30.443Z,9.10
2022-09-27T20:49:59.643Z,9.10
2022-09-27T20:52:26.507Z,9.03
2022-09-27T20:54:59.493Z,8.96
2022-09-27T20:57:40.449Z,9.00
2022-09-27T21:00:14.723Z,9.02
2022-09-27T21:02:42.554Z,9.17
2022-09-27T21:05:11.931Z,8.94
2022-09-27T21:07:39.125Z,9.16
2022-09-27T21:10:07.329Z,9.38
2022-09-27T21:12:34.298Z,9.24
2022-09-27T21:15:01.167Z,9.06
2022-09-27T21:17:31.032Z,9.03
2022-09-27T21:20:03.045Z,8.92
2022-09-27T21:22:34.856Z,8.94
2022-09-27T21:25:03.073Z,8.86
2022-09-27T21:27:30.861Z,8.91
2022-09-27T21:30:00.258Z,8.56
2022-09-27T21:32:27.280Z,8.49
2022-09-27T21:34:55.889Z,8.35
2022-09-27T21:37:22.885Z,8.20
2022-09-27T21:39:50.745Z,8.23
2022-09-27T21:42:18.556Z,8.12
2022-09-27T21:44:46.638Z,7.97
2022-09-27T21:47:16.552Z,7.99
2022-09-27T21:49:44.529Z,8.01
2022-09-27T21:52:12.358Z,7.95
2022-09-27T21:54:39.189Z,8.00
2022-09-27T21:57:06.173Z,7.96
2022-09-27T21:59:35.080Z,8.09
2022-09-27T22:02:02.102Z,8.43
2022-09-27T22:04:28.954Z,8.55
2022-09-27T22:06:56.924Z,8.28
2022-09-27T22:09:23.827Z,8.27
2022-09-27T22:11:52.697Z,7.86
2022-09-27T22:14:20.250Z,7.76
2022-09-27T22:16:47.487Z,7.83
2022-09-27T22:19:16.100Z,7.83
2022-09-27T22:21:43.305Z,7.90
2022-09-27T22:24:19.600Z,7.82
2022-09-27T22:26:49.317Z,7.79
2022-09-27T22:29:16.629Z,7.89
2022-09-27T22:31:44.676Z,7.85
2022-09-27T22:34:17.149Z,8.10
2022-09-27T22:36:44.285Z,8.02
2022-09-27T22:39:14.405Z,8.19
2022-09-27T22:41:41.300Z,8.08
2022-09-27T22:44:08.818Z,8.22
2022-09-27T22:46:37.755Z,8.09
2022-09-27T22:49:10.456Z,7.94
2022-09-27T22:51:37.242Z,8.13
2022-09-27T22:54:04.457Z,8.06
2022-09-27T22:56:31.214Z,8.07
2022-09-27T22:58:58.222Z,7.93
2022-09-27T23:01:27.109Z,8.09
2022-09-27T23:03:54.481Z,8.10
2022-09-27T23:06:22.209Z,8.20
2022-09-27T23:08:50.136Z,8.17
2022-09-27T23:11:19.319Z,8.20
2022-09-27T23:13:48.875Z,8.23
2022-09-27T23:16:19.632Z,8.30
2022-09-27T23:18:48.097Z,8.22
2022-09-27T23:21:15.584Z,8.37
2022-09-27T23:23:45.048Z,8.26
2022-09-27T23:26:16.701Z,8.16
2022-09-27T23:28:43.918Z,8.40
2022-09-27T23:31:15.572Z,8.65
2022-09-27T23:33:47.741Z,8.40
2022-09-27T23:36:26.697Z,8.44
2022-09-27T23:38:59.644Z,8.27
2022-09-27T23:41:29.641Z,8.38
2022-09-27T23:43:57.004Z,8.32
2022-09-27T23:46:26.134Z,8.17
2022-09-27T23:48:53.909Z,8.22
2022-09-27T23:51:20.766Z,8.19
2022-09-27T23:53:47.701Z,8.20
2022-09-27T23:56:40.883Z,8.25
2022-09-27T23:59:07.619Z,8.04
